sensor_id;sensor_type;location;lat;lon;timestamp;temperature;humidity
3312;DHT22;1668;49.648;8.570;2022-10-16T00:01:05;15.60;99.90
3312;DHT22;1668;49.648;8.570;2022-10-16T00:03:33;15.60;99.90
3312;DHT22;1668;49.648;8.570;2022-10-16T00:06:00;15.60;99.90
3312;DHT22;1668;49.648;8.570;2022-10-16T00:08:28;15.70;99.90
3312;DHT22;1668;49.648;8.570;2022-10-16T00:10:59;15.60;99.90
3312;DHT22;1668;49.648;8.570;2022-10-16T00:13:28;15.60;99.90
3312;DHT22;1668;49.648;8.570;2022-10-16T00:15:56;15.60;99.90
3312;DHT22;1668;49.648;8.570;2022-10-16T00:18:23;15.60;99.90
3312;DHT22;1668;49.648;8.570;2022-10-16T00:20:50;15.60;99.90
3312;DHT22;1668;49.648;8.570;2022-10-16T00:23:17;15.70;99.90
3312;DHT22;1668;49.648;8.570;2022-10-16T00:25:44;15.60;99.90
3312;DHT22;1668;49.648;8.570;2022-10-16T00:28:11;15.60;99.90
3312;DHT22;1668;49.648;8.570;2022-10-16T00:30:39;15.70;99.90
3312;DHT22;1668;49.648;8.570;2022-10-16T00:33:06;15.60;99.90
3312;DHT22;1668;49.648;8.570;2022-10-16T00:35:33;15.60;99.90
3312;DHT22;1668;49.648;8.570;2022-10-16T00:38:00;15.60;99.90
3312;DHT22;1668;49.648;8.570;2022-10-16T00:40:27;15.70;99.90
3312;DHT22;1668;49.648;8.570;2022-10-16T00:42:55;15.60;99.90
3312;DHT22;1668;49.648;8.570;2022-10-16T00:45:21;15.60;99.90
3312;DHT22;1668;49.648;8.570;2022-10-16T00:47:51;15.60;99.90
3312;DHT22;1668;49.648;8.570;2022-10-16T00:50:29;15.60;99.90
3312;DHT22;1668;49.648;8.570;2022-10-16T00:52:57;15.60;99.90
3312;DHT22;1668;49.648;8.570;2022-10-16T00:55:25;15.60;99.90
3312;DHT22;1668;49.648;8.570;2022-10-16T00:57:53;15.60;99.90
3312;DHT22;1668;49.648;8.570;2022-10-16T01:00:23;15.70;99.90
3312;DHT22;1668;49.648;8.570;2022-10-16T01:02:56;15.60;99.90
3312;DHT22;1668;49.648;8.570;2022-10-16T01:05:25;15.60;99.90
3312;DHT22;1668;49.648;8.570;2022-10-16T01:08:00;15.60;99.90
3312;DHT22;1668;49.648;8.570;2022-10-16T01:10:31;15.60;99.90
3312;DHT22;1668;49.648;8.570;2022-10-16T01:13:04;15.70;99.90
3312;DHT22;1668;49.648;8.570;2022-10-16T01:15:35;15.60;99.90
3312;DHT22;1668;49.648;8.570;2022-10-16T01:18:08;15.70;99.90
3312;DHT22;1668;49.648;8.570;2022-10-16T01:20:39;15.70;99.90
3312;DHT22;1668;49.648;8.570;2022-10-16T01:23:18;15.70;99.90
3312;DHT22;1668;49.648;8.570;2022-10-16T01:25:59;15.70;99.90
3312;DHT22;1668;49.648;8.570;2022-10-16T01:28:36;15.60;99.90
3312;DHT22;1668;49.648;8.570;2022-10-16T01:31:06;15.60;99.90
3312;DHT22;1668;49.648;8.570;2022-10-16T01:33:37;15.70;99.90
3312;DHT22;1668;49.648;8.570;2022-10-16T01:36:09;15.70;99.90
3312;DHT22;1668;49.648;8.570;2022-10-16T01:38:38;15.70;99.90
3312;DHT22;1668;49.648;8.570;2022-10-16T01:41:08;15.70;99.90
3312;DHT22;1668;49.648;8.570;2022-10-16T01:43:40;15.70;99.90
3312;DHT22;1668;49.648;8.570;2022-10-16T01:46:08;15.70;99.90
3312;DHT22;1668;49.648;8.570;2022-10-16T01:48:36;15.70;99.90
3312;DHT22;1668;49.648;8.570;2022-10-16T01:51:08;15.70;99.90
3312;DHT22;1668;49.648;8.570;2022-10-16T01:53:37;15.70;99.90
3312;DHT22;1668;49.648;8.570;2022-10-16T01:56:07;15.70;99.90
3312;DHT22;1668;49.648;8.570;2022-10-16T01:58:40;15.70;99.90
3312;DHT22;1668;49.648;8.570;2022-10-16T02:01:09;15.70;99.90
3312;DHT22;1668;49.648;8.570;2022-10-16T02:03:38;15.70;99.90
3312;DHT22;1668;49.648;8.570;2022-10-16T02:06:07;15.70;99.90
3312;DHT22;1668;49.648;8.570;2022-10-16T02:08:34;15.70;99.90
3312;DHT22;1668;49.648;8.570;2022-10-16T02:11:02;15.60;99.90
3312;DHT22;1668;49.648;8.570;2022-10-16T02:13:32;15.60;99.90
3312;DHT22;1668;49.648;8.570;2022-10-16T02:16:01;15.60;99.90
3312;DHT22;1668;49.648;8.570;2022-10-16T02:18:28;15.60;99.90
3312;DHT22;1668;49.648;8.570;2022-10-16T02:20:59;15.60;99.90
3312;DHT22;1668;49.648;8.570;2022-10-16T02:23:33;15.60;99.90
3312;DHT22;1668;49.648;8.570;2022-10-16T02:26:04;15.60;99.90
3312;DHT22;1668;49.648;8.570;2022-10-16T02:28:38;15.60;99.90
3312;DHT22;1668;49.648;8.570;2022-10-16T02:31:10;15.60;99.90
3312;DHT22;1668;49.648;8.570;2022-10-16T02:33:39;15.60;99.90
3312;DHT22;1668;49.648;8.570;2022-10-16T02:36:07;15.60;99.90
3312;DHT22;1668;49.648;8.570;2022-10-16T02:38:34;15.60;99.90
3312;DHT22;1668;49.648;8.570;2022-10-16T02:41:03;15.60;99.90
3312;DHT22;1668;49.648;8.570;2022-10-16T02:43:30;15.60;99.90
3312;DHT22;1668;49.648;8.570;2022-10-16T02:45:59;15.60;99.90
3312;DHT22;1668;49.648;8.570;2022-10-16T02:48:27;15.60;99.90
3312;DHT22;1668;49.648;8.570;2022-10-16T02:50:54;15.60;99.90
3312;DHT22;1668;49.648;8.570;2022-10-16T02:53:21;15.60;99.90
3312;DHT22;1668;49.648;8.570;2022-10-16T02:55:48;15.60;99.90
3312;DHT22;1668;49.648;8.570;2022-10-16T02:58:14;15.60;99.90
3312;DHT22;1668;49.648;8.570;2022-10-16T03:00:41;15.60;99.90
3312;DHT22;1668;49.648;8.570;2022-10-16T03:03:08;15.60;99.90
3312;DHT22;1668;49.648;8.570;2022-10-16T03:05:36;15.60;99.90
3312;DHT22;1668;49.648;8.570;2022-10-16T03:08:03;15.60;99.90
3312;DHT22;1668;49.648;8.570;2022-10-16T03:10:31;15.60;99.90
3312;DHT22;1668;49.648;8.570;2022-10-16T03:12:57;15.60;99.90
3312;DHT22;1668;49.648;8.570;2022-10-16T03:15:24;15.60;99.90
3312;DHT22;1668;49.648;8.570;2022-10-16T03:17:51;15.60;99.90
3312;DHT22;1668;49.648;8.570;2022-10-16T03:20:18;15.60;99.90
3312;DHT22;1668;49.648;8.570;2022-10-16T03:22:46;15.60;99.90
3312;DHT22;1668;49.648;8.570;2022-10-16T03:25:13;15.60;99.90
3312;DHT22;1668;49.648;8.570;2022-10-16T03:27:40;15.60;99.90
3312;DHT22;1668;49.648;8.570;2022-10-16T03:30:08;15.60;99.90
3312;DHT22;1668;49.648;8.570;2022-10-16T03:32:35;15.60;99.90
3312;DHT22;1668;49.648;8.570;2022-10-16T03:35:02;15.60;99.90
3312;DHT22;1668;49.648;8.570;2022-10-16T03:37:29;15.60;99.90
3312;DHT22;1668;49.648;8.570;2022-10-16T03:39:57;15.60;99.90
3312;DHT22;1668;49.648;8.570;2022-10-16T03:42:24;15.60;99.90
3312;DHT22;1668;49.648;8.570;2022-10-16T03:44:51;15.60;99.90
3312;DHT22;1668;49.648;8.570;2022-10-16T03:47:18;15.60;99.90
3312;DHT22;1668;49.648;8.570;2022-10-16T03:49:47;15.60;99.90
3312;DHT22;1668;49.648;8.570;2022-10-16T03:52:14;15.60;99.90
3312;DHT22;1668;49.648;8.570;2022-10-16T03:54:41;15.60;99.90
3312;DHT22;1668;49.648;8.570;2022-10-16T03:57:09;15.60;99.90
3312;DHT22;1668;49.648;8.570;2022-10-16T03:59:36;15.60;99.90
3312;DHT22;1668;49.648;8.570;2022-10-16T04:02:03;15.60;99.90
3312;DHT22;1668;49.648;8.570;2022-10-16T04:04:30;15.60;99.90
3312;DHT22;1668;49.648;8.570;2022-10-16T04:06:57;15.60;99.90
3312;DHT22;1668;49.648;8.570;2022-10-16T04:09:23;15.60;99.90
3312;DHT22;1668;49.648;8.570;2022-10-16T04:11:50;15.60;99.90
3312;DHT22;1668;49.648;8.570;2022-10-16T04:14:18;15.60;99.90
3312;DHT22;1668;49.648;8.570;2022-10-16T04:16:45;15.60;99.90
3312;DHT22;1668;49.648;8.570;2022-10-16T04:19:12;15.60;99.90
3312;DHT22;1668;49.648;8.570;2022-10-16T04:21:39;15.60;99.90
3312;DHT22;1668;49.648;8.570;2022-10-16T04:24:06;15.60;99.90
3312;DHT22;1668;49.648;8.570;2022-10-16T04:26:33;15.60;99.90
3312;DHT22;1668;49.648;8.570;2022-10-16T04:29:00;15.60;99.90
3312;DHT22;1668;49.648;8.570;2022-10-16T04:31:28;15.50;99.90
3312;DHT22;1668;49.648;8.570;2022-10-16T04:33:55;15.50;99.90
3312;DHT22;1668;49.648;8.570;2022-10-16T04:36:22;15.50;99.90
3312;DHT22;1668;49.648;8.570;2022-10-16T04:38:49;15.50;99.90
3312;DHT22;1668;49.648;8.570;2022-10-16T04:41:16;15.50;99.90
3312;DHT22;1668;49.648;8.570;2022-10-16T04:43:43;15.50;99.90
3312;DHT22;1668;49.648;8.570;2022-10-16T04:46:10;15.50;99.90
3312;DHT22;1668;49.648;8.570;2022-10-16T04:48:38;15.50;99.90
3312;DHT22;1668;49.648;8.570;2022-10-16T04:51:05;15.50;99.90
3312;DHT22;1668;49.648;8.570;2022-10-16T04:53:32;15.50;99.90
3312;DHT22;1668;49.648;8.570;2022-10-16T04:55:59;15.50;99.90
3312;DHT22;1668;49.648;8.570;2022-10-16T04:58:25;15.50;99.90
3312;DHT22;1668;49.648;8.570;2022-10-16T05:00:53;15.50;99.90
3312;DHT22;1668;49.648;8.570;2022-10-16T05:03:19;15.50;99.90
3312;DHT22;1668;49.648;8.570;2022-10-16T05:05:48;15.40;99.90
3312;DHT22;1668;49.648;8.570;2022-10-16T05:08:15;15.40;99.90
3312;DHT22;1668;49.648;8.570;2022-10-16T05:10:43;15.40;99.90
3312;DHT22;1668;49.648;8.570;2022-10-16T05:13:11;15.40;99.90
3312;DHT22;1668;49.648;8.570;2022-10-16T05:15:38;15.40;99.90
3312;DHT22;1668;49.648;8.570;2022-10-16T05:18:05;15.40;99.90
3312;DHT22;1668;49.648;8.570;2022-10-16T05:20:32;15.40;99.90
3312;DHT22;1668;49.648;8.570;2022-10-16T05:23:00;15.40;99.90
3312;DHT22;1668;49.648;8.570;2022-10-16T05:25:27;15.40;99.90
3312;DHT22;1668;49.648;8.570;2022-10-16T05:27:54;15.40;99.90
3312;DHT22;1668;49.648;8.570;2022-10-16T05:30:21;15.40;99.90
3312;DHT22;1668;49.648;8.570;2022-10-16T05:32:48;15.40;99.90
3312;DHT22;1668;49.648;8.570;2022-10-16T05:35:16;15.30;99.90
3312;DHT22;1668;49.648;8.570;2022-10-16T05:37:44;15.40;99.90
3312;DHT22;1668;49.648;8.570;2022-10-16T05:40:13;15.30;99.90
3312;DHT22;1668;49.648;8.570;2022-10-16T05:42:40;15.30;99.90
3312;DHT22;1668;49.648;8.570;2022-10-16T05:45:10;15.30;99.90
3312;DHT22;1668;49.648;8.570;2022-10-16T05:47:37;15.30;99.90
3312;DHT22;1668;49.648;8.570;2022-10-16T05:50:05;15.30;99.90
3312;DHT22;1668;49.648;8.570;2022-10-16T05:52:31;15.30;99.90
3312;DHT22;1668;49.648;8.570;2022-10-16T05:54:58;15.30;99.90
3312;DHT22;1668;49.648;8.570;2022-10-16T05:57:27;15.30;99.90
3312;DHT22;1668;49.648;8.570;2022-10-16T05:59:53;15.30;99.90
3312;DHT22;1668;49.648;8.570;2022-10-16T06:02:20;15.30;99.90
3312;DHT22;1668;49.648;8.570;2022-10-16T06:04:47;15.30;99.90
3312;DHT22;1668;49.648;8.570;2022-10-16T06:07:14;15.30;99.90
3312;DHT22;1668;49.648;8.570;2022-10-16T06:09:41;15.30;99.90
3312;DHT22;1668;49.648;8.570;2022-10-16T06:12:08;15.30;99.90
3312;DHT22;1668;49.648;8.570;2022-10-16T06:14:36;15.30;99.90
3312;DHT22;1668;49.648;8.570;2022-10-16T06:17:03;15.30;99.90
3312;DHT22;1668;49.648;8.570;2022-10-16T06:19:30;15.30;99.90
3312;DHT22;1668;49.648;8.570;2022-10-16T06:21:57;15.30;99.90
3312;DHT22;1668;49.648;8.570;2022-10-16T06:24:24;15.30;99.90
3312;DHT22;1668;49.648;8.570;2022-10-16T06:26:51;15.30;99.90
3312;DHT22;1668;49.648;8.570;2022-10-16T06:29:18;15.30;99.90
3312;DHT22;1668;49.648;8.570;2022-10-16T06:31:46;15.30;99.90
3312;DHT22;1668;49.648;8.570;2022-10-16T06:34:13;15.40;99.90
3312;DHT22;1668;49.648;8.570;2022-10-16T06:36:40;15.30;99.90
3312;DHT22;1668;49.648;8.570;2022-10-16T06:39:08;15.40;99.90
3312;DHT22;1668;49.648;8.570;2022-10-16T06:41:35;15.40;99.90
3312;DHT22;1668;49.648;8.570;2022-10-16T06:44:05;15.40;99.90
3312;DHT22;1668;49.648;8.570;2022-10-16T06:46:32;15.30;99.90
3312;DHT22;1668;49.648;8.570;2022-10-16T06:49:01;15.40;99.90
3312;DHT22;1668;49.648;8.570;2022-10-16T06:51:27;15.40;99.90
3312;DHT22;1668;49.648;8.570;2022-10-16T06:53:55;15.40;99.90
3312;DHT22;1668;49.648;8.570;2022-10-16T06:56:24;15.40;99.90
3312;DHT22;1668;49.648;8.570;2022-10-16T06:58:52;15.40;99.90
3312;DHT22;1668;49.648;8.570;2022-10-16T07:01:20;15.40;99.90
3312;DHT22;1668;49.648;8.570;2022-10-16T07:03:48;15.50;99.90
3312;DHT22;1668;49.648;8.570;2022-10-16T07:06:18;15.40;99.90
3312;DHT22;1668;49.648;8.570;2022-10-16T07:08:46;15.50;99.90
3312;DHT22;1668;49.648;8.570;2022-10-16T07:11:14;15.50;99.90
3312;DHT22;1668;49.648;8.570;2022-10-16T07:13:43;15.50;99.90
3312;DHT22;1668;49.648;8.570;2022-10-16T07:16:12;15.50;99.90
3312;DHT22;1668;49.648;8.570;2022-10-16T07:18:39;15.50;99.90
3312;DHT22;1668;49.648;8.570;2022-10-16T07:21:09;15.50;99.90
3312;DHT22;1668;49.648;8.570;2022-10-16T07:23:38;15.50;99.90
3312;DHT22;1668;49.648;8.570;2022-10-16T07:26:05;15.50;99.90
3312;DHT22;1668;49.648;8.570;2022-10-16T07:28:33;15.50;99.90
3312;DHT22;1668;49.648;8.570;2022-10-16T07:31:01;15.50;99.90
3312;DHT22;1668;49.648;8.570;2022-10-16T07:33:28;15.50;99.90
3312;DHT22;1668;49.648;8.570;2022-10-16T07:35:55;15.50;99.90
3312;DHT22;1668;49.648;8.570;2022-10-16T07:38:23;15.60;99.90
3312;DHT22;1668;49.648;8.570;2022-10-16T07:40:57;15.60;99.90
3312;DHT22;1668;49.648;8.570;2022-10-16T07:43:24;15.60;99.90
3312;DHT22;1668;49.648;8.570;2022-10-16T07:45:52;15.60;99.90
3312;DHT22;1668;49.648;8.570;2022-10-16T07:48:19;15.60;99.90
3312;DHT22;1668;49.648;8.570;2022-10-16T07:50:46;15.70;99.90
3312;DHT22;1668;49.648;8.570;2022-10-16T07:53:13;15.60;99.90
3312;DHT22;1668;49.648;8.570;2022-10-16T07:55:40;15.60;99.90
3312;DHT22;1668;49.648;8.570;2022-10-16T07:58:09;15.70;99.90
3312;DHT22;1668;49.648;8.570;2022-10-16T08:00:36;15.70;99.90
3312;DHT22;1668;49.648;8.570;2022-10-16T08:03:04;15.70;99.90
3312;DHT22;1668;49.648;8.570;2022-10-16T08:05:32;15.70;99.90
3312;DHT22;1668;49.648;8.570;2022-10-16T08:07:59;15.70;99.90
3312;DHT22;1668;49.648;8.570;2022-10-16T08:10:27;15.80;99.90
3312;DHT22;1668;49.648;8.570;2022-10-16T08:12:54;15.80;99.90
3312;DHT22;1668;49.648;8.570;2022-10-16T08:15:22;15.80;99.90
3312;DHT22;1668;49.648;8.570;2022-10-16T08:17:57;15.80;99.90
3312;DHT22;1668;49.648;8.570;2022-10-16T08:20:24;15.80;99.90
3312;DHT22;1668;49.648;8.570;2022-10-16T08:22:51;15.90;99.90
3312;DHT22;1668;49.648;8.570;2022-10-16T08:25:19;15.80;99.90
3312;DHT22;1668;49.648;8.570;2022-10-16T08:27:46;15.80;99.90
3312;DHT22;1668;49.648;8.570;2022-10-16T08:30:14;15.80;99.90
3312;DHT22;1668;49.648;8.570;2022-10-16T08:32:43;15.80;99.90
3312;DHT22;1668;49.648;8.570;2022-10-16T08:35:10;15.80;99.90
3312;DHT22;1668;49.648;8.570;2022-10-16T08:37:37;15.80;99.90
3312;DHT22;1668;49.648;8.570;2022-10-16T08:40:07;15.80;99.90
3312;DHT22;1668;49.648;8.570;2022-10-16T08:42:47;15.80;99.90
3312;DHT22;1668;49.648;8.570;2022-10-16T08:45:28;15.80;99.90
3312;DHT22;1668;49.648;8.570;2022-10-16T08:48:09;15.80;99.90
3312;DHT22;1668;49.648;8.570;2022-10-16T08:50:41;15.80;99.90
3312;DHT22;1668;49.648;8.570;2022-10-16T08:53:13;15.80;99.90
3312;DHT22;1668;49.648;8.570;2022-10-16T08:55:43;15.90;99.90
3312;DHT22;1668;49.648;8.570;2022-10-16T08:58:12;15.80;99.90
3312;DHT22;1668;49.648;8.570;2022-10-16T09:00:40;15.80;99.90
3312;DHT22;1668;49.648;8.570;2022-10-16T09:03:17;15.80;99.90
3312;DHT22;1668;49.648;8.570;2022-10-16T09:06:15;15.80;99.90
3312;DHT22;1668;49.648;8.570;2022-10-16T09:08:58;15.80;99.90
3312;DHT22;1668;49.648;8.570;2022-10-16T09:11:35;15.90;99.90
3312;DHT22;1668;49.648;8.570;2022-10-16T09:14:16;15.90;99.90
3312;DHT22;1668;49.648;8.570;2022-10-16T09:16:50;15.90;99.90
3312;DHT22;1668;49.648;8.570;2022-10-16T09:19:25;15.90;99.90
3312;DHT22;1668;49.648;8.570;2022-10-16T09:21:56;15.90;99.90
3312;DHT22;1668;49.648;8.570;2022-10-16T09:24:25;16.00;99.90
3312;DHT22;1668;49.648;8.570;2022-10-16T09:26:52;16.00;99.90
3312;DHT22;1668;49.648;8.570;2022-10-16T09:29:21;16.00;99.90
3312;DHT22;1668;49.648;8.570;2022-10-16T09:31:51;16.00;99.90
3312;DHT22;1668;49.648;8.570;2022-10-16T09:34:27;16.00;99.90
3312;DHT22;1668;49.648;8.570;2022-10-16T09:36:57;16.10;99.90
3312;DHT22;1668;49.648;8.570;2022-10-16T09:39:25;16.10;99.90
3312;DHT22;1668;49.648;8.570;2022-10-16T09:41:52;16.10;99.90
3312;DHT22;1668;49.648;8.570;2022-10-16T09:44:26;16.20;99.90
3312;DHT22;1668;49.648;8.570;2022-10-16T09:47:01;16.20;99.90
3312;DHT22;1668;49.648;8.570;2022-10-16T09:49:30;16.20;99.90
3312;DHT22;1668;49.648;8.570;2022-10-16T09:52:04;16.30;99.90
3312;DHT22;1668;49.648;8.570;2022-10-16T09:54:30;16.30;99.90
3312;DHT22;1668;49.648;8.570;2022-10-16T09:57:05;16.30;99.90
3312;DHT22;1668;49.648;8.570;2022-10-16T09:59:32;16.40;99.90
3312;DHT22;1668;49.648;8.570;2022-10-16T10:02:04;16.40;99.90
3312;DHT22;1668;49.648;8.570;2022-10-16T10:04:41;16.60;99.90
3312;DHT22;1668;49.648;8.570;2022-10-16T10:07:17;16.50;99.90
3312;DHT22;1668;49.648;8.570;2022-10-16T10:09:45;16.60;99.90
3312;DHT22;1668;49.648;8.570;2022-10-16T10:12:21;16.60;99.90
3312;DHT22;1668;49.648;8.570;2022-10-16T10:14:50;16.70;99.90
3312;DHT22;1668;49.648;8.570;2022-10-16T10:17:19;16.70;99.90
3312;DHT22;1668;49.648;8.570;2022-10-16T10:19:50;16.70;99.90
3312;DHT22;1668;49.648;8.570;2022-10-16T10:22:23;16.80;99.90
3312;DHT22;1668;49.648;8.570;2022-10-16T10:25:14;16.90;99.90
3312;DHT22;1668;49.648;8.570;2022-10-16T10:27:50;17.00;99.90
3312;DHT22;1668;49.648;8.570;2022-10-16T10:30:24;17.10;99.90
3312;DHT22;1668;49.648;8.570;2022-10-16T10:33:03;17.20;99.90
3312;DHT22;1668;49.648;8.570;2022-10-16T10:35:41;17.20;99.90
3312;DHT22;1668;49.648;8.570;2022-10-16T10:38:18;17.30;99.90
3312;DHT22;1668;49.648;8.570;2022-10-16T10:40:52;17.40;99.90
3312;DHT22;1668;49.648;8.570;2022-10-16T10:43:38;17.50;99.90
3312;DHT22;1668;49.648;8.570;2022-10-16T10:46:14;17.60;99.90
3312;DHT22;1668;49.648;8.570;2022-10-16T10:49:07;17.70;99.90
3312;DHT22;1668;49.648;8.570;2022-10-16T10:51:44;17.70;99.90
3312;DHT22;1668;49.648;8.570;2022-10-16T10:54:20;17.90;99.90
3312;DHT22;1668;49.648;8.570;2022-10-16T10:56:55;17.90;99.90
3312;DHT22;1668;49.648;8.570;2022-10-16T10:59:44;18.00;99.90
3312;DHT22;1668;49.648;8.570;2022-10-16T11:02:19;18.10;99.90
3312;DHT22;1668;49.648;8.570;2022-10-16T11:07:58;18.30;99.90
3312;DHT22;1668;49.648;8.570;2022-10-16T11:10:28;18.30;99.90
3312;DHT22;1668;49.648;8.570;2022-10-16T11:13:00;18.40;99.90
3312;DHT22;1668;49.648;8.570;2022-10-16T11:15:33;18.50;99.90
3312;DHT22;1668;49.648;8.570;2022-10-16T11:18:05;18.50;99.90
3312;DHT22;1668;49.648;8.570;2022-10-16T11:20:37;18.60;99.90
3312;DHT22;1668;49.648;8.570;2022-10-16T11:23:14;18.70;99.90
3312;DHT22;1668;49.648;8.570;2022-10-16T11:25:43;18.70;99.90
3312;DHT22;1668;49.648;8.570;2022-10-16T11:28:14;18.80;99.90
3312;DHT22;1668;49.648;8.570;2022-10-16T11:30:46;18.90;99.90
3312;DHT22;1668;49.648;8.570;2022-10-16T11:33:24;18.90;99.90
3312;DHT22;1668;49.648;8.570;2022-10-16T11:35:57;18.90;99.90
3312;DHT22;1668;49.648;8.570;2022-10-16T11:38:32;18.90;99.90
3312;DHT22;1668;49.648;8.570;2022-10-16T11:41:03;19.00;99.90
3312;DHT22;1668;49.648;8.570;2022-10-16T11:43:37;19.20;99.90
3312;DHT22;1668;49.648;8.570;2022-10-16T11:46:10;19.30;99.90
3312;DHT22;1668;49.648;8.570;2022-10-16T11:48:43;19.40;99.90
3312;DHT22;1668;49.648;8.570;2022-10-16T11:51:17;19.50;99.90
3312;DHT22;1668;49.648;8.570;2022-10-16T11:53:53;19.60;99.90
3312;DHT22;1668;49.648;8.570;2022-10-16T11:56:22;19.70;99.90
3312;DHT22;1668;49.648;8.570;2022-10-16T11:58:54;19.80;99.90
3312;DHT22;1668;49.648;8.570;2022-10-16T12:01:30;19.80;99.90
3312;DHT22;1668;49.648;8.570;2022-10-16T12:04:16;19.80;99.90
3312;DHT22;1668;49.648;8.570;2022-10-16T12:06:52;19.80;99.90
3312;DHT22;1668;49.648;8.570;2022-10-16T12:09:25;19.80;99.90
3312;DHT22;1668;49.648;8.570;2022-10-16T12:11:53;19.70;99.90
3312;DHT22;1668;49.648;8.570;2022-10-16T12:14:35;19.70;99.90
3312;DHT22;1668;49.648;8.570;2022-10-16T12:17:22;19.70;99.90
3312;DHT22;1668;49.648;8.570;2022-10-16T12:19:57;19.70;99.90
3312;DHT22;1668;49.648;8.570;2022-10-16T12:22:28;19.80;99.90
3312;DHT22;1668;49.648;8.570;2022-10-16T12:24:57;19.80;99.90
3312;DHT22;1668;49.648;8.570;2022-10-16T12:27:27;19.80;99.90
3312;DHT22;1668;49.648;8.570;2022-10-16T12:29:56;19.70;99.90
3312;DHT22;1668;49.648;8.570;2022-10-16T12:32:28;19.70;99.90
3312;DHT22;1668;49.648;8.570;2022-10-16T12:34:55;19.70;99.90
3312;DHT22;1668;49.648;8.570;2022-10-16T12:37:25;19.70;99.90
3312;DHT22;1668;49.648;8.570;2022-10-16T12:39:55;19.70;99.90
3312;DHT22;1668;49.648;8.570;2022-10-16T12:42:32;19.70;99.90
3312;DHT22;1668;49.648;8.570;2022-10-16T12:45:00;19.70;99.90
3312;DHT22;1668;49.648;8.570;2022-10-16T12:47:47;19.70;99.90
3312;DHT22;1668;49.648;8.570;2022-10-16T12:50:30;19.70;99.90
3312;DHT22;1668;49.648;8.570;2022-10-16T12:52:57;19.60;99.90
3312;DHT22;1668;49.648;8.570;2022-10-16T12:55:26;19.60;99.90
3312;DHT22;1668;49.648;8.570;2022-10-16T12:58:07;19.60;99.90
3312;DHT22;1668;49.648;8.570;2022-10-16T13:00:43;19.70;99.90
3312;DHT22;1668;49.648;8.570;2022-10-16T13:06:26;19.80;99.90
3312;DHT22;1668;49.648;8.570;2022-10-16T13:09:12;19.90;99.90
3312;DHT22;1668;49.648;8.570;2022-10-16T13:11:56;19.90;99.90
3312;DHT22;1668;49.648;8.570;2022-10-16T13:14:43;19.90;99.90
3312;DHT22;1668;49.648;8.570;2022-10-16T13:17:18;19.90;99.90
3312;DHT22;1668;49.648;8.570;2022-10-16T13:19:54;19.90;99.90
3312;DHT22;1668;49.648;8.570;2022-10-16T13:22:30;19.80;99.90
3312;DHT22;1668;49.648;8.570;2022-10-16T13:25:13;19.80;99.90
3312;DHT22;1668;49.648;8.570;2022-10-16T13:27:50;19.80;99.90
3312;DHT22;1668;49.648;8.570;2022-10-16T13:30:21;19.70;99.90
3312;DHT22;1668;49.648;8.570;2022-10-16T13:32:50;19.70;99.90
3312;DHT22;1668;49.648;8.570;2022-10-16T13:35:20;19.70;99.90
3312;DHT22;1668;49.648;8.570;2022-10-16T13:37:47;19.70;99.90
3312;DHT22;1668;49.648;8.570;2022-10-16T13:40:20;19.60;99.90
3312;DHT22;1668;49.648;8.570;2022-10-16T13:42:49;19.60;99.90
3312;DHT22;1668;49.648;8.570;2022-10-16T13:45:18;19.60;99.90
3312;DHT22;1668;49.648;8.570;2022-10-16T13:47:45;19.50;99.90
3312;DHT22;1668;49.648;8.570;2022-10-16T13:50:14;19.50;99.90
3312;DHT22;1668;49.648;8.570;2022-10-16T13:52:41;19.50;99.90
3312;DHT22;1668;49.648;8.570;2022-10-16T13:55:11;19.50;99.90
3312;DHT22;1668;49.648;8.570;2022-10-16T13:57:38;19.50;99.90
3312;DHT22;1668;49.648;8.570;2022-10-16T14:00:20;19.40;99.90
3312;DHT22;1668;49.648;8.570;2022-10-16T14:02:52;19.40;99.90
3312;DHT22;1668;49.648;8.570;2022-10-16T14:05:20;19.40;99.90
3312;DHT22;1668;49.648;8.570;2022-10-16T14:07:49;19.40;99.90
3312;DHT22;1668;49.648;8.570;2022-10-16T14:10:23;19.40;99.90
3312;DHT22;1668;49.648;8.570;2022-10-16T14:13:01;19.40;99.90
3312;DHT22;1668;49.648;8.570;2022-10-16T14:15:31;19.40;99.90
3312;DHT22;1668;49.648;8.570;2022-10-16T14:17:59;19.40;99.90
3312;DHT22;1668;49.648;8.570;2022-10-16T14:20:28;19.40;99.90
3312;DHT22;1668;49.648;8.570;2022-10-16T14:23:00;19.40;99.90
3312;DHT22;1668;49.648;8.570;2022-10-16T14:25:30;19.30;99.90
3312;DHT22;1668;49.648;8.570;2022-10-16T14:28:01;19.30;99.90
3312;DHT22;1668;49.648;8.570;2022-10-16T14:30:31;19.30;99.90
3312;DHT22;1668;49.648;8.570;2022-10-16T14:33:00;19.30;99.90
3312;DHT22;1668;49.648;8.570;2022-10-16T14:35:31;19.30;99.90
3312;DHT22;1668;49.648;8.570;2022-10-16T14:37:59;19.30;99.90
3312;DHT22;1668;49.648;8.570;2022-10-16T14:40:28;19.30;99.90
3312;DHT22;1668;49.648;8.570;2022-10-16T14:42:56;19.30;99.90
3312;DHT22;1668;49.648;8.570;2022-10-16T14:45:26;19.30;99.90
3312;DHT22;1668;49.648;8.570;2022-10-16T14:47:57;19.30;99.90
3312;DHT22;1668;49.648;8.570;2022-10-16T14:50:24;19.20;99.90
3312;DHT22;1668;49.648;8.570;2022-10-16T14:52:51;19.20;99.90
3312;DHT22;1668;49.648;8.570;2022-10-16T14:55:18;19.20;99.90
3312;DHT22;1668;49.648;8.570;2022-10-16T14:57:45;19.20;99.90
3312;DHT22;1668;49.648;8.570;2022-10-16T15:00:17;19.20;99.90
3312;DHT22;1668;49.648;8.570;2022-10-16T15:02:45;19.20;99.90
3312;DHT22;1668;49.648;8.570;2022-10-16T15:05:16;19.20;99.90
3312;DHT22;1668;49.648;8.570;2022-10-16T15:07:43;19.20;99.90
3312;DHT22;1668;49.648;8.570;2022-10-16T15:10:11;19.20;99.90
3312;DHT22;1668;49.648;8.570;2022-10-16T15:12:38;19.20;99.90
3312;DHT22;1668;49.648;8.570;2022-10-16T15:15:26;19.20;99.90
3312;DHT22;1668;49.648;8.570;2022-10-16T15:17:55;19.20;99.90
3312;DHT22;1668;49.648;8.570;2022-10-16T15:20:24;19.20;99.90
3312;DHT22;1668;49.648;8.570;2022-10-16T15:22:52;19.20;99.90
3312;DHT22;1668;49.648;8.570;2022-10-16T15:25:30;19.20;99.90
3312;DHT22;1668;49.648;8.570;2022-10-16T15:27:57;19.20;99.90
3312;DHT22;1668;49.648;8.570;2022-10-16T15:30:24;19.30;99.90
3312;DHT22;1668;49.648;8.570;2022-10-16T15:32:51;19.30;99.90
3312;DHT22;1668;49.648;8.570;2022-10-16T15:35:18;19.30;99.90
3312;DHT22;1668;49.648;8.570;2022-10-16T15:37:48;19.20;99.90
3312;DHT22;1668;49.648;8.570;2022-10-16T15:40:15;19.20;99.90
3312;DHT22;1668;49.648;8.570;2022-10-16T15:42:42;19.20;99.90
3312;DHT22;1668;49.648;8.570;2022-10-16T15:45:10;19.20;99.90
3312;DHT22;1668;49.648;8.570;2022-10-16T15:47:37;19.20;99.90
3312;DHT22;1668;49.648;8.570;2022-10-16T15:50:05;19.20;99.90
3312;DHT22;1668;49.648;8.570;2022-10-16T15:52:32;19.20;99.90
3312;DHT22;1668;49.648;8.570;2022-10-16T15:55:00;19.10;99.90
3312;DHT22;1668;49.648;8.570;2022-10-16T15:57:28;19.10;99.90
3312;DHT22;1668;49.648;8.570;2022-10-16T15:59:55;19.10;99.90
3312;DHT22;1668;49.648;8.570;2022-10-16T16:02:22;19.10;99.90
3312;DHT22;1668;49.648;8.570;2022-10-16T16:04:49;19.00;99.90
3312;DHT22;1668;49.648;8.570;2022-10-16T16:07:16;19.00;99.90
3312;DHT22;1668;49.648;8.570;2022-10-16T16:09:43;19.00;99.90
3312;DHT22;1668;49.648;8.570;2022-10-16T16:12:12;19.00;99.90
3312;DHT22;1668;49.648;8.570;2022-10-16T16:14:39;19.00;99.90
3312;DHT22;1668;49.648;8.570;2022-10-16T16:17:06;18.90;99.90
3312;DHT22;1668;49.648;8.570;2022-10-16T16:19:33;18.90;99.90
3312;DHT22;1668;49.648;8.570;2022-10-16T16:22:00;18.90;99.90
3312;DHT22;1668;49.648;8.570;2022-10-16T16:24:27;18.90;99.90
3312;DHT22;1668;49.648;8.570;2022-10-16T16:26:54;18.80;99.90